createdAt,value
2018-02-01T00:01:10.213Z,5.00
2018-02-01T00:03:38.649Z,5.00
2018-02-01T00:06:07.885Z,5.00
2018-02-01T00:08:36.365Z,5.00
2018-02-01T00:11:04.246Z,5.00
2018-02-01T00:13:32.787Z,5.00
2018-02-01T00:16:01.355Z,5.00
2018-02-01T00:18:30.636Z,4.90
2018-02-01T00:20:58.566Z,4.90
2018-02-01T00:23:27.133Z,4.90
2018-02-01T00:25:55.053Z,4.90
2018-02-01T00:28:23.580Z,4.90
2018-02-01T00:30:52.094Z,4.80
2018-02-01T00:33:20.594Z,4.80
2018-02-01T00:38:57.078Z,4.80
2018-02-01T00:41:25.554Z,4.70
2018-02-01T00:43:54.026Z,4.70
2018-02-01T00:46:22.468Z,4.70
2018-02-01T00:48:50.653Z,4.70
2018-02-01T00:51:19.134Z,4.70
2018-02-01T00:53:47.581Z,4.70
2018-02-01T00:56:16.058Z,4.70
2018-02-01T00:58:44.525Z,4.70
2018-02-01T01:01:12.974Z,4.70
2018-02-01T01:03:41.449Z,4.70
2018-02-01T01:06:09.917Z,4.70
2018-02-01T01:08:38.357Z,4.70
2018-02-01T01:11:13.672Z,4.70
2018-02-01T01:13:42.141Z,4.70
2018-02-01T01:16:10.585Z,4.70
2018-02-01T01:18:39.073Z,4.70
2018-02-01T01:21:07.549Z,4.70
2018-02-01T01:23:36.752Z,4.60
2018-02-01T01:26:05.233Z,4.60
2018-02-01T01:28:33.707Z,4.50
2018-02-01T01:31:02.917Z,4.40
2018-02-01T01:33:31.397Z,4.40
2018-02-01T01:35:59.874Z,4.40
2018-02-01T01:38:28.321Z,4.40
2018-02-01T01:40:56.786Z,4.30
2018-02-01T01:43:25.260Z,4.30
2018-02-01T01:46:04.812Z,4.20
2018-02-01T01:48:33.293Z,4.20
2018-02-01T01:51:01.737Z,4.20
2018-02-01T01:53:30.982Z,4.20
2018-02-01T01:55:59.156Z,4.10
2018-02-01T01:58:27.610Z,4.10
2018-02-01T02:00:56.081Z,4.10
2018-02-01T02:03:24.565Z,4.00
2018-02-01T02:05:53.014Z,4.00
2018-02-01T02:08:21.489Z,4.00
2018-02-01T02:10:49.964Z,3.90
2018-02-01T02:13:19.175Z,3.90
2018-02-01T02:15:47.653Z,3.90
2018-02-01T02:18:16.155Z,3.90
2018-02-01T02:20:44.316Z,3.90
2018-02-01T02:23:12.480Z,3.80
2018-02-01T02:25:40.961Z,3.80
2018-02-01T02:28:09.407Z,3.80
2018-02-01T02:30:37.265Z,3.80
2018-02-01T02:33:05.741Z,3.80
2018-02-01T02:35:34.205Z,3.80
2018-02-01T02:38:02.375Z,3.70
2018-02-01T02:40:30.849Z,3.70
2018-02-01T02:42:59.292Z,3.70
2018-02-01T02:45:28.535Z,3.70
2018-02-01T02:47:57.006Z,3.70
2018-02-01T02:50:25.453Z,3.70
2018-02-01T02:52:53.628Z,3.70
2018-02-01T02:55:22.126Z,3.60
2018-02-01T02:57:50.579Z,3.60
2018-02-01T03:00:19.077Z,3.60
2018-02-01T03:02:47.556Z,3.50
2018-02-01T03:05:16.006Z,3.60
2018-02-01T03:07:44.476Z,3.50
2018-02-01T03:10:12.958Z,3.60
2018-02-01T03:12:41.405Z,3.50
2018-02-01T03:15:09.881Z,3.50
2018-02-01T03:17:38.352Z,3.50
2018-02-01T03:20:06.795Z,3.50
2018-02-01T03:22:35.269Z,3.50
2018-02-01T03:25:03.744Z,3.50
2018-02-01T03:27:32.189Z,3.50
2018-02-01T03:30:00.131Z,3.50
2018-02-01T03:32:28.061Z,3.60
2018-02-01T03:34:56.556Z,3.60
2018-02-01T03:37:25.849Z,3.70
2018-02-01T03:39:55.166Z,3.70
2018-02-01T03:42:23.691Z,3.70
2018-02-01T03:44:52.242Z,3.70
2018-02-01T03:47:20.788Z,3.70
2018-02-01T03:49:49.357Z,3.70
2018-02-01T03:52:17.901Z,3.70
2018-02-01T03:54:46.437Z,3.80
2018-02-01T03:57:15.772Z,3.80
2018-02-01T03:59:44.312Z,3.80
2018-02-01T04:02:12.862Z,3.70
2018-02-01T04:04:41.385Z,3.70
2018-02-01T04:07:09.925Z,3.70
2018-02-01T04:09:38.466Z,3.70
2018-02-01T04:12:07.750Z,3.70
2018-02-01T04:14:36.282Z,3.70
2018-02-01T04:17:04.802Z,3.70
2018-02-01T04:19:33.364Z,3.80
2018-02-01T04:22:01.903Z,3.80
2018-02-01T04:24:30.575Z,3.80
2018-02-01T04:26:59.222Z,3.70
2018-02-01T04:29:27.746Z,3.70
2018-02-01T04:31:57.017Z,3.70
2018-02-01T04:34:25.513Z,3.70
2018-02-01T04:36:54.066Z,3.80
2018-02-01T04:39:22.598Z,3.80
2018-02-01T04:41:51.905Z,3.80
2018-02-01T04:44:20.429Z,3.80
2018-02-01T04:46:48.989Z,3.80
2018-02-01T04:49:16.890Z,3.80
2018-02-01T04:51:45.448Z,3.80
2018-02-01T04:54:14.006Z,3.80
2018-02-01T04:56:42.486Z,3.80
2018-02-01T04:59:11.030Z,3.80
2018-02-01T05:01:39.564Z,3.80
2018-02-01T05:04:07.911Z,3.80
2018-02-01T05:06:37.219Z,3.80
2018-02-01T05:09:06.524Z,3.80
2018-02-01T05:11:35.033Z,3.80
2018-02-01T05:14:03.557Z,3.70
2018-02-01T05:16:31.782Z,3.70
2018-02-01T05:19:00.263Z,3.70
2018-02-01T05:21:28.811Z,3.60
2018-02-01T05:23:58.131Z,3.60
2018-02-01T05:26:26.623Z,3.60
2018-02-01T05:28:55.170Z,3.50
2018-02-01T05:31:24.478Z,3.40
2018-02-01T05:33:53.772Z,3.40
2018-02-01T05:36:23.071Z,3.40
2018-02-01T05:38:52.382Z,3.40
2018-02-01T05:41:21.541Z,3.40
2018-02-01T05:43:50.143Z,3.30
2018-02-01T05:46:19.428Z,3.30
2018-02-01T05:48:47.329Z,3.30
2018-02-01T05:51:16.634Z,3.30
2018-02-01T05:53:45.174Z,3.30
2018-02-01T05:56:13.716Z,3.30
2018-02-01T05:58:42.244Z,3.20
2018-02-01T06:01:10.828Z,3.20
2018-02-01T06:03:39.341Z,3.20
2018-02-01T06:06:07.902Z,3.20
2018-02-01T06:08:36.471Z,3.20
2018-02-01T06:11:05.018Z,3.20
2018-02-01T06:13:33.550Z,3.10
2018-02-01T06:16:02.077Z,3.10
2018-02-01T06:18:30.609Z,3.10
2018-02-01T06:20:59.159Z,3.10
2018-02-01T06:23:27.746Z,3.00
2018-02-01T06:25:56.235Z,3.00
2018-02-01T06:28:24.629Z,3.00
2018-02-01T06:30:53.169Z,2.90
2018-02-01T06:33:21.711Z,2.90
2018-02-01T06:35:51.022Z,2.90
2018-02-01T06:38:19.578Z,2.80
2018-02-01T06:40:48.078Z,2.90
2018-02-01T06:43:16.635Z,2.80
2018-02-01T06:45:45.187Z,2.80
2018-02-01T06:48:13.711Z,2.80
2018-02-01T06:50:42.268Z,2.70
2018-02-01T06:53:10.832Z,2.80
2018-02-01T06:55:40.163Z,2.70
2018-02-01T06:58:08.710Z,2.70
2018-02-01T07:00:42.646Z,2.70
2018-02-01T07:03:11.202Z,2.60
2018-02-01T07:05:39.733Z,2.70
2018-02-01T07:08:08.275Z,2.70
2018-02-01T07:10:36.825Z,2.70
2018-02-01T07:13:06.148Z,2.70
2018-02-01T07:15:34.910Z,2.70
2018-02-01T07:18:04.240Z,2.60
2018-02-01T07:20:32.821Z,2.60
2018-02-01T07:23:01.961Z,2.60
2018-02-01T07:25:30.386Z,2.60
2018-02-01T07:27:58.918Z,2.60
2018-02-01T07:30:27.458Z,2.60
2018-02-01T07:32:56.012Z,2.50
2018-02-01T07:35:25.310Z,2.60
2018-02-01T07:37:54.611Z,2.60
2018-02-01T07:40:23.922Z,2.60
2018-02-01T07:42:52.475Z,2.50
2018-02-01T07:45:21.010Z,2.60
2018-02-01T07:47:49.579Z,2.60
2018-02-01T07:50:18.118Z,2.60
2018-02-01T07:52:46.350Z,2.60
2018-02-01T07:55:14.872Z,2.70
2018-02-01T07:57:43.437Z,2.70
2018-02-01T08:00:11.924Z,2.70
2018-02-01T08:02:40.473Z,2.70
2018-02-01T08:05:09.009Z,2.70
2018-02-01T08:07:37.554Z,2.70
2018-02-01T08:10:06.087Z,2.90
2018-02-01T08:12:35.409Z,3.00
2018-02-01T08:15:03.977Z,3.00
2018-02-01T08:17:38.681Z,3.10
2018-02-01T08:20:07.071Z,3.10
2018-02-01T08:22:35.617Z,3.10
2018-02-01T08:25:10.017Z,3.10
2018-02-01T08:27:38.581Z,3.10
2018-02-01T08:30:06.486Z,3.20
2018-02-01T08:32:35.029Z,3.20
2018-02-01T08:35:03.572Z,3.20
2018-02-01T08:37:32.088Z,3.20
2018-02-01T08:40:01.436Z,3.20
2018-02-01T08:42:29.998Z,3.10
2018-02-01T08:44:58.507Z,3.20
2018-02-01T08:47:27.060Z,3.10
2018-02-01T08:50:13.138Z,3.20
2018-02-01T08:52:41.703Z,3.30
2018-02-01T08:55:11.027Z,3.50
2018-02-01T08:57:39.550Z,3.50
2018-02-01T09:00:08.139Z,3.60
2018-02-01T09:02:36.714Z,3.70
2018-02-01T09:05:05.250Z,3.70
2018-02-01T09:07:33.809Z,3.70
2018-02-01T09:10:03.111Z,3.60
2018-02-01T09:12:32.434Z,3.60
2018-02-01T09:15:00.967Z,3.60
2018-02-01T09:17:35.045Z,3.50
2018-02-01T09:20:06.340Z,3.40
2018-02-01T09:22:35.720Z,3.30
2018-02-01T09:25:04.295Z,3.30
2018-02-01T09:27:33.037Z,3.40
2018-02-01T09:30:01.695Z,3.40
2018-02-01T09:32:30.261Z,3.40
2018-02-01T09:34:58.760Z,3.40
2018-02-01T09:37:27.336Z,3.40
2018-02-01T09:39:56.178Z,3.40
2018-02-01T09:42:24.709Z,3.40
2018-02-01T09:44:53.266Z,3.40
2018-02-01T09:47:21.970Z,3.50
2018-02-01T09:49:50.469Z,3.50
2018-02-01T09:52:18.994Z,3.60
2018-02-01T09:54:47.595Z,3.60
2018-02-01T09:57:16.088Z,3.80
2018-02-01T09:59:44.618Z,4.00
2018-02-01T10:02:13.945Z,4.10
2018-02-01T10:04:42.521Z,4.10
2018-02-01T10:07:11.058Z,4.10
2018-02-01T10:09:39.646Z,4.10
2018-02-01T10:12:08.147Z,4.10
2018-02-01T10:14:36.689Z,4.20
2018-02-01T10:17:05.234Z,4.30
2018-02-01T10:19:33.722Z,4.30
2018-02-01T10:22:02.225Z,4.40
2018-02-01T10:24:30.818Z,4.40
2018-02-01T10:26:59.293Z,4.40
2018-02-01T10:29:27.213Z,4.50
2018-02-01T10:31:56.532Z,4.80
2018-02-01T10:34:25.094Z,4.80
2018-02-01T10:36:53.627Z,4.90
2018-02-01T10:39:22.173Z,4.90
2018-02-01T10:41:50.693Z,4.70
2018-02-01T10:44:19.264Z,4.70
2018-02-01T10:46:47.646Z,4.60
2018-02-01T10:49:16.198Z,4.50
2018-02-01T10:51:44.758Z,4.40
2018-02-01T10:54:14.087Z,4.40
2018-02-01T10:56:42.573Z,4.40
2018-02-01T10:59:11.106Z,4.40
2018-02-01T11:01:39.624Z,4.40
2018-02-01T11:04:08.153Z,4.60
2018-02-01T11:06:36.685Z,4.90
2018-02-01T11:09:04.629Z,5.10
2018-02-01T11:11:33.891Z,5.50
2018-02-01T11:14:02.658Z,5.50
2018-02-01T11:16:31.199Z,5.60
2018-02-01T11:18:59.682Z,5.80
2018-02-01T11:21:29.014Z,5.70
2018-02-01T11:23:57.538Z,5.60
2018-02-01T11:26:26.030Z,5.80
2018-02-01T11:28:54.597Z,5.90
2018-02-01T11:31:22.961Z,6.00
2018-02-01T11:33:51.450Z,5.90
2018-02-01T11:36:19.997Z,5.90
2018-02-01T11:38:48.546Z,6.10
2018-02-01T11:41:17.112Z,6.00
2018-02-01T11:43:45.633Z,5.90
2018-02-01T11:46:14.154Z,6.00
2018-02-01T11:48:42.683Z,6.10
2018-02-01T11:51:11.967Z,5.90
2018-02-01T11:53:40.522Z,5.90
2018-02-01T11:56:09.034Z,6.00
2018-02-01T11:58:37.565Z,6.10
2018-02-01T12:01:06.078Z,6.20
2018-02-01T12:03:34.622Z,6.40
2018-02-01T12:06:03.190Z,6.50
2018-02-01T12:08:32.510Z,6.50
2018-02-01T12:11:01.039Z,6.50
2018-02-01T12:13:29.577Z,6.50
2018-02-01T12:15:58.149Z,6.70
2018-02-01T12:18:26.644Z,6.70
2018-02-01T12:20:55.209Z,6.50
2018-02-01T12:23:23.826Z,6.40
2018-02-01T12:25:51.710Z,6.50
2018-02-01T12:28:20.447Z,6.70
2018-02-01T12:30:50.944Z,6.50
2018-02-01T12:33:20.217Z,6.20
2018-02-01T12:35:48.786Z,6.20
2018-02-01T12:38:17.378Z,6.20
2018-02-01T12:40:45.930Z,6.20
2018-02-01T12:43:15.554Z,6.30
2018-02-01T12:45:44.030Z,6.20
2018-02-01T12:48:12.582Z,6.30
2018-02-01T12:50:41.142Z,6.60
2018-02-01T12:53:09.703Z,6.80
2018-02-01T12:55:38.238Z,6.90
2018-02-01T12:58:06.790Z,7.00
2018-02-01T13:00:35.021Z,6.90
2018-02-01T13:03:03.569Z,7.00
2018-02-01T13:05:32.875Z,7.10
2018-02-01T13:08:01.415Z,7.10
2018-02-01T13:10:29.946Z,6.90
2018-02-01T13:12:58.486Z,6.80
2018-02-01T13:15:27.021Z,6.70
2018-02-01T13:17:55.580Z,6.70
2018-02-01T13:20:24.880Z,6.70
2018-02-01T13:22:54.139Z,6.80
2018-02-01T13:28:15.526Z,6.80
2018-02-01T13:30:44.082Z,6.90
2018-02-01T13:33:12.603Z,6.90
2018-02-01T13:35:40.858Z,7.10
2018-02-01T13:38:10.150Z,6.70
2018-02-01T13:40:39.454Z,6.30
2018-02-01T13:43:08.702Z,6.20
2018-02-01T13:45:37.288Z,6.20
2018-02-01T13:48:05.811Z,6.10
2018-02-01T13:50:35.113Z,5.90
2018-02-01T13:53:04.428Z,5.90
2018-02-01T13:55:33.705Z,5.90
2018-02-01T13:58:03.150Z,5.90
2018-02-01T14:00:31.118Z,5.90
2018-02-01T14:02:59.666Z,5.90
2018-02-01T14:05:28.206Z,5.90
2018-02-01T14:07:56.754Z,6.00
2018-02-01T14:10:25.338Z,6.00
2018-02-01T14:12:59.674Z,6.00
2018-02-01T14:15:28.186Z,5.90
2018-02-01T14:17:56.669Z,5.80
2018-02-01T14:20:24.596Z,5.70
2018-02-01T14:22:53.122Z,5.60
2018-02-01T14:25:21.662Z,5.60
2018-02-01T14:27:50.946Z,5.50
2018-02-01T14:30:19.495Z,5.50
2018-02-01T14:32:48.042Z,5.50
2018-02-01T14:35:17.423Z,5.50
2018-02-01T14:37:45.942Z,5.50
2018-02-01T14:40:14.487Z,5.50
2018-02-01T14:42:43.017Z,5.50
2018-02-01T14:45:11.263Z,5.40
2018-02-01T14:47:39.763Z,5.40
2018-02-01T14:50:08.310Z,5.40
2018-02-01T14:52:36.860Z,5.40
2018-02-01T14:55:05.359Z,5.40
2018-02-01T14:57:34.663Z,5.40
2018-02-01T15:00:03.666Z,5.40
2018-02-01T15:02:32.157Z,5.30
2018-02-01T15:05:00.710Z,5.30
2018-02-01T15:07:30.026Z,5.30
2018-02-01T15:09:58.539Z,5.30
2018-02-01T15:12:27.103Z,5.30
2018-02-01T15:14:55.811Z,5.20
2018-02-01T15:17:24.318Z,5.20
2018-02-01T15:19:52.865Z,5.10
2018-02-01T15:22:21.362Z,5.10
2018-02-01T15:24:49.249Z,5.10
2018-02-01T15:27:17.775Z,5.10
2018-02-01T15:29:52.161Z,5.10
2018-02-01T15:32:20.698Z,5.00
2018-02-01T15:34:49.243Z,5.00
2018-02-01T15:37:18.593Z,5.00
2018-02-01T15:39:47.135Z,5.00
2018-02-01T15:42:15.674Z,5.00
2018-02-01T15:44:44.195Z,5.00
2018-02-01T15:47:13.500Z,4.90
2018-02-01T15:49:42.019Z,4.90
2018-02-01T15:52:10.506Z,4.90
2018-02-01T15:54:39.048Z,4.90
2018-02-01T15:57:07.573Z,4.90
2018-02-01T15:59:36.128Z,4.80
2018-02-01T16:02:04.655Z,4.80
2018-02-01T16:04:33.196Z,4.70
2018-02-01T16:07:01.725Z,4.70
2018-02-01T16:09:30.276Z,4.60
2018-02-01T16:11:58.825Z,4.60
2018-02-01T16:14:27.338Z,4.50
2018-02-01T16:16:55.908Z,4.30
2018-02-01T16:19:24.523Z,4.20
2018-02-01T16:21:53.023Z,4.20
2018-02-01T16:24:22.406Z,4.10
2018-02-01T16:26:50.938Z,4.10
2018-02-01T16:29:19.459Z,4.10
2018-02-01T16:31:48.018Z,4.10
2018-02-01T16:34:16.589Z,4.00
2018-02-01T16:36:45.159Z,3.90
2018-02-01T16:39:13.728Z,3.90
2018-02-01T16:41:43.133Z,4.00
2018-02-01T16:44:12.477Z,4.00
2018-02-01T16:46:41.196Z,4.00
2018-02-01T16:49:09.864Z,3.90
2018-02-01T16:51:38.402Z,3.90
2018-02-01T16:54:06.918Z,3.90
2018-02-01T16:56:35.411Z,3.80
2018-02-01T16:59:03.957Z,3.70
2018-02-01T17:01:32.686Z,3.70
2018-02-01T17:04:01.304Z,3.60
2018-02-01T17:06:30.083Z,3.60
2018-02-01T17:08:58.715Z,3.60
2018-02-01T17:11:27.287Z,3.50
2018-02-01T17:13:55.870Z,3.50
2018-02-01T17:16:24.433Z,3.50
2018-02-01T17:18:56.176Z,3.50
2018-02-01T17:21:25.533Z,3.60
2018-02-01T17:23:54.023Z,3.60
2018-02-01T17:26:22.595Z,3.60
2018-02-01T17:28:51.254Z,3.60
2018-02-01T17:31:19.827Z,3.60
2018-02-01T17:33:48.366Z,3.70
2018-02-01T17:36:16.948Z,3.70
2018-02-01T17:38:45.511Z,3.70
2018-02-01T17:41:16.167Z,3.70
2018-02-01T17:43:44.703Z,3.70
2018-02-01T17:46:13.383Z,3.70
2018-02-01T17:48:41.939Z,3.70
2018-02-01T17:51:11.258Z,3.70
2018-02-01T17:53:39.820Z,3.70
2018-02-01T17:56:09.313Z,3.70
2018-02-01T17:58:37.850Z,3.70
2018-02-01T18:01:06.902Z,3.70
2018-02-01T18:03:35.483Z,3.70
2018-02-01T18:06:04.056Z,3.70
2018-02-01T18:08:42.634Z,3.70
2018-02-01T18:11:11.194Z,3.70
2018-02-01T18:13:39.858Z,3.70
2018-02-01T18:16:09.159Z,3.80
2018-02-01T18:18:38.583Z,3.80
2018-02-01T18:21:07.534Z,3.80
2018-02-01T18:23:36.869Z,3.70
2018-02-01T18:26:05.451Z,3.70
2018-02-01T18:28:34.104Z,3.70
2018-02-01T18:31:02.867Z,3.70
2018-02-01T18:33:31.275Z,3.70
2018-02-01T18:35:59.803Z,3.70
2018-02-01T18:38:28.369Z,3.60
2018-02-01T18:40:56.984Z,3.60
2018-02-01T18:43:25.590Z,3.60
2018-02-01T18:45:54.168Z,3.60
2018-02-01T18:48:22.783Z,3.60
2018-02-01T18:50:55.705Z,3.60
2018-02-01T18:53:24.260Z,3.60
2018-02-01T18:55:52.900Z,3.60
2018-02-01T18:58:22.122Z,3.60
2018-02-01T19:00:50.661Z,3.60
2018-02-01T19:03:19.166Z,3.60
2018-02-01T19:05:47.694Z,3.60
2018-02-01T19:08:17.042Z,3.60
2018-02-01T19:10:45.564Z,3.60
2018-02-01T19:13:14.135Z,3.60
2018-02-01T19:15:42.686Z,3.60
2018-02-01T19:18:11.262Z,3.60
2018-02-01T19:20:39.800Z,3.50
2018-02-01T19:23:09.134Z,3.50
2018-02-01T19:25:37.681Z,3.40
2018-02-01T19:28:06.992Z,3.40
2018-02-01T19:30:35.540Z,3.30
2018-02-01T19:33:04.071Z,3.40
2018-02-01T19:35:33.425Z,3.30
2018-02-01T19:38:01.962Z,3.30
2018-02-01T19:43:31.381Z,3.20
2018-02-01T19:45:59.895Z,3.20
2018-02-01T19:48:28.463Z,3.20
2018-02-01T19:50:57.027Z,3.20
2018-02-01T19:53:25.620Z,3.20
2018-02-01T19:55:54.142Z,3.20
2018-02-01T19:58:22.650Z,3.20
2018-02-01T20:00:52.048Z,3.10
2018-02-01T20:03:21.388Z,3.10
2018-02-01T20:05:49.939Z,3.10
2018-02-01T20:08:19.263Z,3.10
2018-02-01T20:10:47.789Z,3.10
2018-02-01T20:13:16.340Z,3.10
2018-02-01T20:15:44.845Z,3.10
2018-02-01T20:18:13.234Z,3.00
2018-02-01T20:20:41.820Z,3.10
2018-02-01T20:23:10.388Z,3.00
2018-02-01T20:25:38.633Z,3.00
2018-02-01T20:28:07.138Z,3.00
2018-02-01T20:30:35.663Z,3.00
2018-02-01T20:33:04.977Z,3.00
2018-02-01T20:35:33.534Z,3.00
2018-02-01T20:40:55.488Z,3.00
2018-02-01T20:43:24.623Z,3.00
2018-02-01T20:45:54.767Z,3.00
2018-02-01T20:48:23.774Z,3.00
2018-02-01T20:50:52.412Z,3.10
2018-02-01T20:53:25.347Z,3.10
2018-02-01T20:55:53.908Z,3.10
2018-02-01T20:58:22.527Z,3.10
2018-02-01T21:00:51.062Z,3.10
2018-02-01T21:03:19.610Z,3.10
2018-02-01T21:05:48.906Z,3.00
2018-02-01T21:08:18.286Z,3.00
2018-02-01T21:10:46.869Z,3.00
2018-02-01T21:13:15.390Z,3.00
2018-02-01T21:15:43.938Z,3.00
2018-02-01T21:18:12.518Z,3.00
2018-02-01T21:20:41.017Z,3.00
2018-02-01T21:23:10.334Z,2.90
2018-02-01T21:25:39.650Z,2.80
2018-02-01T21:28:08.279Z,2.80
2018-02-01T21:30:36.898Z,2.80
2018-02-01T21:33:06.290Z,2.70
2018-02-01T21:35:39.325Z,2.70
2018-02-01T21:38:07.880Z,2.70
2018-02-01T21:40:36.448Z,2.70
2018-02-01T21:43:05.015Z,2.70
2018-02-01T21:45:33.554Z,2.70
2018-02-01T21:48:03.388Z,2.70
2018-02-01T21:50:32.139Z,2.60
2018-02-01T21:53:00.683Z,2.60
2018-02-01T21:55:32.422Z,2.40
2018-02-01T21:58:01.818Z,2.10
2018-02-01T22:00:30.384Z,2.10
2018-02-01T22:02:58.931Z,2.10
2018-02-01T22:05:28.321Z,1.90
2018-02-01T22:07:56.888Z,1.90
2018-02-01T22:10:25.516Z,1.80
2018-02-01T22:12:54.063Z,1.70
2018-02-01T22:15:34.631Z,1.60
2018-02-01T22:18:03.202Z,1.60
2018-02-01T22:20:31.758Z,1.50
2018-02-01T22:23:00.317Z,1.50
2018-02-01T22:25:28.760Z,1.50
2018-02-01T22:27:57.702Z,1.40
2018-02-01T22:30:26.358Z,1.40
2018-02-01T22:32:55.694Z,1.40
2018-02-01T22:35:24.203Z,1.40
2018-02-01T22:37:52.739Z,1.50
2018-02-01T22:40:21.268Z,1.40
2018-02-01T22:42:49.780Z,1.30
2018-02-01T22:45:18.355Z,1.20
2018-02-01T22:47:46.936Z,1.10
2018-02-01T22:50:15.593Z,1.10
2018-02-01T22:52:44.153Z,1.00
2018-02-01T22:55:12.690Z,1.00
2018-02-01T22:57:41.290Z,1.00
2018-02-01T23:00:10.630Z,0.90
2018-02-01T23:02:39.194Z,0.90
2018-02-01T23:05:07.761Z,0.90
2018-02-01T23:07:37.095Z,0.90
2018-02-01T23:10:05.631Z,0.90
2018-02-01T23:12:34.962Z,1.00
2018-02-01T23:15:03.502Z,1.00
2018-02-01T23:17:32.047Z,1.00
2018-02-01T23:20:00.585Z,1.10
2018-02-01T23:22:29.110Z,1.20
2018-02-01T23:24:57.713Z,1.30
2018-02-01T23:27:26.222Z,1.30
2018-02-01T23:29:54.805Z,1.40
2018-02-01T23:32:23.360Z,1.40
2018-02-01T23:34:51.930Z,1.50
2018-02-01T23:37:20.461Z,1.50
2018-02-01T23:39:49.842Z,1.60
2018-02-01T23:42:18.394Z,1.50
2018-02-01T23:44:46.949Z,1.50
2018-02-01T23:47:16.216Z,1.60
2018-02-01T23:49:44.670Z,1.60
2018-02-01T23:52:13.153Z,1.60
2018-02-01T23:54:41.630Z,1.70
2018-02-01T23:57:10.077Z,1.70
2018-02-01T23:59:38.548Z,1.80
